Αναφορές METAR από Ελληνικά Αεροδρόμια

Σε αυτή τη σελίδα, μπορείτε να παρακολουθείτε τις αναφορές METAR που προέρχονται από τα κυριότερα αεροδρόμια της Ελλάδας. Το περιεχόμενο αποκωδικοποιείται, οπτικοποιείται και γίνεται κατανοητό από τον καθένα με τη χρήση του όμορφου δίγλωσσου γραφικού περιβάλλοντος του meteothes.gr!

Η αρχική κωδικοποιημένη αναφορά, συμπεριλαμβάνεται επίσης στο κάτω μέρος. Σε όποια καθεστερεί η ενημέρωση, το προειδοποιητικό μήνυμα "Μη ενημερωμένο METAR!" εμφανίζεται στο πάνω μέρος της με κόκκινα γράμματα.

Εχουν προστεθεί επίσης δύο αεροδρόμια από γειτονικές χώρες, την Οχρίδα(ΠΓΔΜ) και την Σόφια(Βουλγαρία) για να ελέγχουμε την εξέλιξη των ψυχρών εισβολών από τα Βόρεια!

LGTS - Thessaloniki/Makedonia-Elev 7m
Απόσταση από meteothes.gr: Ν 13km
Ενημερώθηκε: 05/03/2024 03:20
Ασθενής βροχή, Κυρίως νεφελώδης
Ασθενής βροχή, Κυρίως νεφελώδης
 Ανεμος από Α
Ανεμος: Α 17 km/h
Θερμοκρασία: 10°C
Αίσθηση Ψύχρας: 8°C
Σημ. Δρόσου: 10°C
Υγρασία: 100%
Βαρόμετρο: 1005 hPa
Συνθήκες: Ασθενής βροχή
Νέφωση: Κυρίως νεφελώδης
Ορατότητα: 8 km
Λεπτομέρειες Νεφών: Διάσπαρτα Nέφη 213 m
Διάσπαρτα Nέφη 610 m
Κυρίως νεφελώδης 914 m
2024/03/05 01:20 LGTS 050120Z 08009KT 8000 -RA FEW007 FEW020TCU BKN030 10/10 Q1005 RERA TEMPO TSRA
LGAV - Athens/Elef. Venizelos-Elev 94m
Απόσταση από meteothes.gr: ΝΝΑ 312km
Ενημερώθηκε: 05/03/2024 03:20
Μερικώς νεφελώδης
Μερικώς νεφελώδης
 Ανεμος από ΝΔ
Ανεμος: ΝΔ 9 km/h
Θερμοκρασία: 11°C
Σημ. Δρόσου: 8°C
Υγρασία: 82%
Βαρόμετρο: 1005 hPa
Νέφωση: Μερικώς νεφελώδης
Ορατότητα: 10 km
Λεπτομέρειες Νεφών: Μερικώς νεφελώδης 762 m
2024/03/05 01:20 LGAV 050120Z 22005KT 9999 SCT025 11/08 Q1005 NOSIG
 
LGAL - Alexandroupolis-Elev 3m
Απόσταση από meteothes.gr: Α 251km
Ενημερώθηκε: 05/03/2024 02:50
Μερικώς νεφελώδης
Μερικώς νεφελώδης
 Ανεμος από ΒΑ
Ανεμος: ΒΑ 9 km/h
Θερμοκρασία: 11°C
Σημ. Δρόσου: 8°C
Υγρασία: 82%
Βαρόμετρο: 1008 hPa
Νέφωση: Μερικώς νεφελώδης
Ορατότητα: 10 km
Λεπτομέρειες Νεφών: Μερικώς νεφελώδης 762 m
2024/03/05 00:50 LGAL 050050Z 05005KT 9999 SCT025 11/08 Q1008
LGKV - Kavala/Crysoupolis-Elev 5m
Απόσταση από meteothes.gr: ΑΒΑ 144km
Ενημερώθηκε: 04/03/2024 20:20
ΜΗ Ενημερωμένο METAR!
Μερικώς νεφελώδης
Μερικώς νεφελώδης
 Ανεμος από ΑΒΑ
Ανεμος: ΑΒΑ 9 km/h
Θερμοκρασία: 12°C
Σημ. Δρόσου: 9°C
Υγρασία: 82%
Βαρόμετρο: 1011 hPa
Νέφωση: Μερικώς νεφελώδης
Ορατότητα: 10 km
Λεπτομέρειες Νεφών: Μερικώς νεφελώδης 610 m
Μερικώς νεφελώδης 2134 m
2024/03/04 18:20 LGKV 041820Z 07005KT 9999 SCT020 SCT070 12/09 Q1011
 
LGSK - Skiathos Island-Elev 15m
Απόσταση από meteothes.gr: ΝΝΑ 168km
Ενημερώθηκε: 04/03/2024 19:50
ΜΗ Ενημερωμένο METAR!
Μερικώς νεφελώδης
Μερικώς νεφελώδης
 Ανεμος από ΝΑ
Ανεμος: ΝΑ 13 km/h
Θερμοκρασία: 16°C
Σημ. Δρόσου: 12°C
Υγρασία: 77%
Βαρόμετρο: 1008 hPa
Νέφωση: Μερικώς νεφελώδης
Ορατότητα: 10 km
Λεπτομέρειες Νεφών: Διάσπαρτα Nέφη 549 m
Μερικώς νεφελώδης 762 m
2024/03/04 17:50 LGSK 041750Z 13007KT 9999 FEW018 SCT025 16/12 Q1008
LGLM - Limnos Island-Elev 5m
Απόσταση από meteothes.gr: ΑΝΑ 210km
Ενημερώθηκε: 05/03/2024 03:20
Ασθενής βροχή, Μερικώς νεφελώδης
Ασθενής βροχή, Μερικώς νεφελώδης
 Ανεμος από ΝΑ
Ανεμος: ΝΑ 19 km/h
Θερμοκρασία: 13°C
Σημ. Δρόσου: 11°C
Υγρασία: 88%
Βαρόμετρο: 1007 hPa
Συνθήκες: Ασθενής βροχή
Νέφωση: Μερικώς νεφελώδης
Ορατότητα: 10 km
Λεπτομέρειες Νεφών: Διάσπαρτα Nέφη 244 m
Διάσπαρτα Nέφη 549 m
Μερικώς νεφελώδης 914 m
2024/03/05 01:20 LGLM 050120Z 13010KT 9999 -RA FEW008 FEW018TCU SCT030 13/11 Q1007
 
LGMT - Mitilini Island-Elev 17m
Απόσταση από meteothes.gr: ΑΝΑ 358km
Ενημερώθηκε: 05/03/2024 02:50
Μερικώς νεφελώδης
Μερικώς νεφελώδης
 Ανεμος από ΝΝΑ
Ανεμος: ΝΝΑ 15 km/h
Θερμοκρασία: 15°C
Σημ. Δρόσου: 11°C
Υγρασία: 77%
Βαρόμετρο: 1009 hPa
Νέφωση: Μερικώς νεφελώδης
Ορατότητα: 10 km
Λεπτομέρειες Νεφών: Διάσπαρτα Nέφη 610 m
Μερικώς νεφελώδης 762 m
2024/03/05 00:50 LGMT 050050Z 15008KT 9999 FEW020 SCT025 15/11 Q1009
LGSY - Skiros Island-Elev 15m
Απόσταση από meteothes.gr: ΝΑ 227km
Ενημερώθηκε: 04/03/2024 19:50
ΜΗ Ενημερωμένο METAR!
Διάσπαρτα Nέφη
Διάσπαρτα Nέφη
 Ανεμος από ΝΝΑ
Ανεμος: ΝΝΑ 15 km/h
Θερμοκρασία: 15°C
Σημ. Δρόσου: 11°C
Υγρασία: 77%
Βαρόμετρο: 1010 hPa
Νέφωση: Διάσπαρτα Nέφη
Ορατότητα: 10 km
Λεπτομέρειες Νεφών: Διάσπαρτα Nέφη 610 m
2024/03/04 17:50 LGSY 041750Z 15008KT 9999 FEW020 15/11 Q1010 RMK FEW180 BLU
 
LGKZ - Kozani-Elev 628m
Απόσταση από meteothes.gr: ΔΝΔ 102km
Ενημερώθηκε: 05/03/2024 03:20

 Ανεμος από μεταβλητός
Ανεμος: μεταβλητός 4 km/h
Θερμοκρασία: 5°C
Σημ. Δρόσου: 5°C
Υγρασία: 100%
Βαρόμετρο: 1005 hPa
2024/03/05 01:20 LGKZ 050120Z AUTO VRB02KT //// // ////// 05/05 Q1005 RERA
LGIO - Ioannina-Elev 476m
Απόσταση από meteothes.gr: ΔΝΔ 209km
Ενημερώθηκε: 05/03/2024 03:20
Ασθενής βροχή
Ασθενής βροχή
 Ανεμος από άπνοια
Ανεμος: άπνοια
Θερμοκρασία: 5°C
Σημ. Δρόσου: 5°C
Υγρασία: 100%
Βαρόμετρο: 1007 hPa
Συνθήκες: Ασθενής βροχή
2024/03/05 01:20 LGIO 050120Z AUTO 00000KT //// -RA ////// 05/05 Q1007 RE//
 
LGZA - Zakinthos-Elev 3m
Απόσταση από meteothes.gr: ΝΝΔ 367km
Ενημερώθηκε: 04/03/2024 19:50
ΜΗ Ενημερωμένο METAR!
Μερικώς νεφελώδης
Μερικώς νεφελώδης
 Ανεμος από μεταβλητός
Ανεμος: μεταβλητός 6 km/h
Θερμοκρασία: 11°C
Σημ. Δρόσου: 11°C
Υγρασία: 100%
Βαρόμετρο: 1008 hPa
Νέφωση: Μερικώς νεφελώδης
Ορατότητα: 10 km
Λεπτομέρειες Νεφών: Διάσπαρτα Nέφη 549 m
Μερικώς νεφελώδης 762 m
2024/03/04 17:50 LGZA 041750Z VRB03KT 9999 FEW018TCU SCT025 11/11 Q1008 RETS
LGKR - Corfu Island-Elev 2m
Απόσταση από meteothes.gr: ΔΝΔ 282km
Ενημερώθηκε: 05/03/2024 03:20
Μερικώς νεφελώδης
Μερικώς νεφελώδης
 Ανεμος από μεταβλητός
Ανεμος: μεταβλητός 6 km/h
Θερμοκρασία: 8°C
Σημ. Δρόσου: 7°C
Υγρασία: 93%
Βαρόμετρο: 1007 hPa
Νέφωση: Μερικώς νεφελώδης
Ορατότητα: 10 km
Λεπτομέρειες Νεφών: Διάσπαρτα Nέφη 549 m
Μερικώς νεφελώδης 762 m
2024/03/05 01:20 LGKR 050120Z VRB03KT 9999 FEW018 SCT025 08/07 Q1007 NOSIG
 
LGSO - Syros Island-Elev 72m
Απόσταση από meteothes.gr: ΝΝΑ 397km
Ενημερώθηκε: 05/03/2024 03:20

 Ανεμος από Ν
Ανεμος: Ν 30 km/h
Θερμοκρασία: 16°C
Σημ. Δρόσου: 12°C
Υγρασία: 77%
Βαρόμετρο: 1006 hPa
2024/03/05 01:20 LGSO 050120Z AUTO 18016KT //// // ////// 16/12 Q1006 RE//
LGMK - Mikonos Island-Elev 123m
Απόσταση από meteothes.gr: ΝΝΑ 412km
Ενημερώθηκε: 04/03/2024 19:50
ΜΗ Ενημερωμένο METAR!
Διάσπαρτα Nέφη
Διάσπαρτα Nέφη
 Ανεμος από ΝΝΑ
Ανεμος: ΝΝΑ 15 km/h
Θερμοκρασία: 15°C
Σημ. Δρόσου: 7°C
Υγρασία: 59%
Βαρόμετρο: 1011 hPa
Νέφωση: Διάσπαρτα Nέφη
Ορατότητα: 10 km
Λεπτομέρειες Νεφών: Διάσπαρτα Nέφη 549 m
2024/03/04 17:50 LGMK 041750Z 16008KT 9999 FEW018 15/07 Q1011
 
LGSR - Santorini Island-Elev 40m
Απόσταση από meteothes.gr: ΝΝΑ 520km
Ενημερώθηκε: 04/03/2024 21:50
ΜΗ Ενημερωμένο METAR!
Μερικώς νεφελώδης
Μερικώς νεφελώδης
 Ανεμος από ΝΑ
Ανεμος: ΝΑ 28 km/h
Θερμοκρασία: 15°C
Σημ. Δρόσου: 10°C
Υγρασία: 72%
Βαρόμετρο: 1011 hPa
Νέφωση: Μερικώς νεφελώδης
Ορατότητα: 10 km
Λεπτομέρειες Νεφών: Μερικώς νεφελώδης 610 m
2024/03/04 19:50 LGSR 041950Z 14015KT 9999 SCT020 15/10 Q1011
LGKL - Kalamata-Elev 8m
Απόσταση από meteothes.gr: Ν 405km
Ενημερώθηκε: 05/03/2024 03:20
Μερικώς νεφελώδης
Μερικώς νεφελώδης
 Ανεμος από άπνοια
Ανεμος: άπνοια
Θερμοκρασία: 9°C
Σημ. Δρόσου: 8°C
Υγρασία: 94%
Βαρόμετρο: 1009 hPa
Νέφωση: Μερικώς νεφελώδης
Ορατότητα: 10 km
Λεπτομέρειες Νεφών: Μερικώς νεφελώδης 762 m
Μερικώς νεφελώδης 2438 m
2024/03/05 01:20 LGKL 050120Z 00000KT 9999 SCT025 SCT080 09/08 Q1009
 
LGIR - Iraklion/Crete-Elev 5m
Απόσταση από meteothes.gr: ΝΝΑ 622km
Ενημερώθηκε: 05/03/2024 03:20
Διάσπαρτα Nέφη
Διάσπαρτα Nέφη
 Ανεμος από Α
Ανεμος: Α 7 km/h
Θερμοκρασία: 16°C
Σημ. Δρόσου: 10°C
Υγρασία: 68%
Βαρόμετρο: 1010 hPa
Νέφωση: Διάσπαρτα Nέφη
Ορατότητα: 10 km
Λεπτομέρειες Νεφών: Διάσπαρτα Nέφη 610 m
2024/03/05 01:20 LGIR 050120Z 09004KT 9999 FEW020 16/10 Q1010 NOSIG
LGRP - Rhodes-Elev 5m
Απόσταση από meteothes.gr: ΝΑ 649km
Ενημερώθηκε: 05/03/2024 03:20
Διάσπαρτα Nέφη
Διάσπαρτα Nέφη
 Ανεμος από ΝΑ
Ανεμος: ΝΑ 11 km/h
Θερμοκρασία: 15°C
Σημ. Δρόσου: 12°C
Υγρασία: 82%
Βαρόμετρο: 1010 hPa
Νέφωση: Διάσπαρτα Nέφη
Ορατότητα: 10 km
Λεπτομέρειες Νεφών: Διάσπαρτα Nέφη 549 m
2024/03/05 01:20 LGRP 050120Z 13006KT 090V180 9999 FEW018 15/12 Q1010 NOSIG
 
LWOH - Ohrid/FYROM-Elev 761m
Απόσταση από meteothes.gr: ΔΒΔ 188km
Ενημερώθηκε: 04/03/2024 22:00
ΜΗ Ενημερωμένο METAR!
Συννεφιά
Συννεφιά
 Ανεμος από ΒΔ
Ανεμος: ΒΔ 6 km/h
Θερμοκρασία: 6°C
Σημ. Δρόσου: 5°C
Υγρασία: 93%
Βαρόμετρο: 1007 hPa
Νέφωση: Συννεφιά
Ορατότητα: 10 km
Λεπτομέρειες Νεφών: Συννεφιά 1219 m
2024/03/04 20:00 LWOH 042000Z 31003KT 9999 OVC040 06/05 Q1007
LBSF - Sofia/Bulgaria-Elev 595m
Απόσταση από meteothes.gr: Β 227km
Ενημερώθηκε: 05/03/2024 03:30
Συννεφιά
Συννεφιά
 Ανεμος από Α
Ανεμος: Α 17 km/h
Θερμοκρασία: 8°C
Αίσθηση Ψύχρας: 5°C
Σημ. Δρόσου: 5°C
Υγρασία: 82%
Βαρόμετρο: 1007 hPa
Νέφωση: Συννεφιά
Ορατότητα: 8 km
Λεπτομέρειες Νεφών: Μερικώς νεφελώδης 701 m
Συννεφιά 853 m
2024/03/05 01:30 LBSF 050130Z AUTO 09009KT 8000 SCT023/// OVC028/// 08/05 Q1007 NOSIG

(*) Μερικές αναφορές παρουσιάζουν λιγότερα στοιχεία γιατί οι αρχικές είναι ελλιπείς ή έχουν λάθος μορφοποίηση!